createdAt,value
2023-04-05T00:00:31.234Z,0.73
2023-04-05T00:05:34.735Z,0.55
2023-04-05T00:10:36.778Z,0.80
2023-04-05T00:15:39.314Z,0.70
2023-04-05T00:20:41.628Z,0.82
2023-04-05T00:25:44.840Z,0.60
2023-04-05T00:30:46.940Z,0.73
2023-04-05T00:35:49.011Z,0.57
2023-04-05T00:40:51.052Z,0.60
2023-04-05T00:45:53.709Z,0.40
2023-04-05T00:50:56.036Z,0.52
2023-04-05T00:55:58.448Z,0.65
2023-04-05T01:01:15.103Z,0.60
2023-04-05T01:06:34.156Z,0.80
2023-04-05T01:11:39.889Z,0.30
2023-04-05T01:16:41.913Z,0.63
2023-04-05T01:22:15.711Z,1.08
2023-04-05T01:27:22.935Z,0.52
2023-04-05T01:32:45.631Z,0.60
2023-04-05T01:37:50.444Z,0.82
2023-04-05T01:42:52.646Z,0.80
2023-04-05T01:47:54.660Z,0.70
2023-04-05T01:52:56.793Z,0.80
2023-04-05T01:57:59.070Z,1.00
2023-04-05T02:03:01.177Z,0.80
2023-04-05T02:08:03.303Z,0.60
2023-04-05T02:13:05.230Z,0.50
2023-04-05T02:18:08.245Z,0.50
2023-04-05T02:23:10.229Z,0.73
2023-04-05T02:28:12.435Z,0.38
2023-04-05T02:33:14.631Z,0.80
2023-04-05T02:38:16.654Z,0.73
2023-04-05T02:43:18.778Z,0.95
2023-04-05T02:48:21.215Z,0.63
2023-04-05T02:53:23.175Z,0.68
2023-04-05T02:58:25.322Z,0.60
2023-04-05T03:03:29.214Z,0.35
2023-04-05T03:08:32.914Z,0.60
2023-04-05T03:13:34.998Z,0.85
2023-04-05T03:18:37.192Z,1.35
2023-04-05T03:23:39.268Z,0.52
2023-04-05T03:28:45.478Z,0.93
2023-04-05T03:33:47.526Z,0.50
2023-04-05T03:38:51.300Z,1.13
2023-04-05T03:43:53.495Z,0.80
2023-04-05T03:48:56.218Z,0.47
2023-04-05T03:53:58.366Z,0.63
2023-04-05T03:59:00.455Z,0.88
2023-04-05T04:04:02.489Z,0.60
2023-04-05T04:09:06.048Z,0.68
2023-04-05T04:14:08.612Z,0.60
2023-04-05T04:19:10.618Z,0.70
2023-04-05T04:24:19.008Z,0.60
2023-04-05T04:29:26.925Z,1.13
2023-04-05T04:34:31.083Z,0.70
2023-04-05T04:39:33.127Z,0.52
2023-04-05T04:44:35.006Z,0.77
2023-04-05T04:49:37.419Z,0.80
2023-04-05T04:54:42.805Z,0.63
2023-04-05T04:59:45.073Z,0.55
2023-04-05T05:04:47.262Z,0.60
2023-04-05T05:09:52.791Z,0.68
2023-04-05T05:14:54.922Z,1.02
2023-04-05T05:19:57.035Z,0.65
2023-04-05T05:24:59.012Z,0.68
2023-04-05T05:30:01.487Z,0.50
2023-04-05T05:35:03.620Z,1.00
2023-04-05T05:40:06.309Z,0.90
2023-04-05T05:45:09.006Z,1.55
2023-04-05T05:50:11.361Z,1.05
2023-04-05T05:55:13.346Z,0.70
2023-04-05T06:00:15.757Z,0.57
2023-04-05T06:05:17.893Z,0.82
2023-04-05T06:10:20.614Z,0.70
2023-04-05T06:15:22.585Z,0.60
2023-04-05T06:20:24.464Z,0.85
2023-04-05T06:25:26.871Z,0.98
2023-04-05T06:30:28.989Z,0.85
2023-04-05T06:35:30.800Z,0.95
2023-04-05T06:40:32.782Z,0.80
2023-04-05T06:45:34.898Z,0.95
2023-04-05T06:50:36.893Z,1.33
2023-04-05T06:55:38.890Z,0.90
2023-04-05T07:00:47.352Z,0.77
2023-04-05T07:06:00.019Z,0.93
2023-04-05T07:11:02.440Z,2.42
2023-04-05T07:16:04.809Z,2.63
2023-04-05T07:21:06.779Z,2.88
2023-04-05T07:26:09.278Z,3.00
2023-04-05T07:31:11.258Z,3.47
2023-04-05T07:36:13.344Z,2.83
2023-04-05T07:41:17.216Z,2.58
2023-04-05T07:46:19.133Z,2.60
2023-04-05T07:51:21.220Z,2.03
2023-04-05T07:56:24.560Z,1.55
2023-04-05T08:01:29.313Z,1.48
2023-04-05T08:06:31.563Z,1.65
2023-04-05T08:11:33.803Z,1.52
2023-04-05T08:16:36.099Z,1.60
2023-04-05T08:21:38.344Z,1.42
2023-04-05T08:26:42.198Z,1.52
2023-04-05T08:31:44.153Z,1.65
2023-04-05T08:36:48.232Z,1.15
2023-04-05T08:42:18.265Z,1.92
2023-04-05T08:47:23.407Z,1.27
2023-04-05T08:52:26.334Z,1.15
2023-04-05T08:57:31.506Z,1.33
2023-04-05T09:02:34.150Z,1.48
2023-04-05T09:07:38.026Z,1.05
2023-04-05T09:12:41.636Z,1.15
2023-04-05T09:17:44.153Z,1.02
2023-04-05T09:22:47.527Z,0.73
2023-04-05T09:27:56.774Z,1.17
2023-04-05T09:32:59.141Z,1.55
2023-04-05T09:38:02.631Z,2.10
2023-04-05T09:43:04.578Z,1.98
2023-04-05T09:48:06.672Z,1.50
2023-04-05T09:53:16.588Z,1.05
2023-04-05T09:58:22.583Z,2.13
2023-04-05T10:03:27.086Z,1.63
2023-04-05T10:08:29.396Z,1.52
2023-04-05T10:13:31.850Z,1.73
2023-04-05T10:18:43.457Z,1.20
2023-04-05T10:23:48.556Z,1.23
2023-04-05T10:28:58.178Z,1.35
2023-04-05T10:34:31.680Z,1.45
2023-04-05T10:39:43.901Z,1.40
2023-04-05T10:44:53.674Z,1.98
2023-04-05T10:50:00.345Z,2.00
2023-04-05T10:55:04.056Z,1.75
2023-04-05T11:00:07.211Z,1.35
2023-04-05T11:05:29.900Z,1.50
2023-04-05T11:10:34.344Z,1.30
2023-04-05T11:15:37.039Z,1.05
2023-04-05T11:20:44.202Z,1.77
2023-04-05T11:25:54.589Z,1.00
2023-04-05T11:30:57.460Z,1.23
2023-04-05T11:36:04.100Z,1.65
2023-04-05T11:41:12.539Z,1.02
2023-04-05T11:46:18.679Z,1.17
2023-04-05T11:51:24.185Z,0.93
2023-04-05T11:56:29.266Z,1.00
2023-04-05T12:01:31.706Z,1.00
2023-04-05T12:06:34.734Z,0.90
2023-04-05T12:11:37.319Z,0.55
2023-04-05T12:16:49.596Z,0.68
2023-04-05T12:21:51.848Z,0.75
2023-04-05T12:26:56.297Z,0.90
2023-04-05T12:32:01.445Z,1.25
2023-04-05T12:37:04.056Z,0.90
2023-04-05T12:42:06.212Z,1.10
2023-04-05T12:47:11.395Z,1.67
2023-04-05T12:52:20.214Z,1.20
2023-04-05T12:57:34.738Z,1.13
2023-04-05T13:02:37.838Z,1.70
2023-04-05T13:07:40.002Z,1.80
2023-04-05T13:12:42.239Z,1.70
2023-04-05T13:17:50.380Z,1.88
2023-04-05T13:22:52.550Z,1.60
2023-04-05T13:27:54.934Z,2.00
2023-04-05T13:32:56.985Z,2.22
2023-04-05T13:38:00.571Z,2.10
2023-04-05T13:43:03.896Z,2.67
2023-04-05T13:48:06.221Z,2.97
2023-04-05T13:53:08.308Z,3.13
2023-04-05T13:58:10.594Z,3.55
2023-04-05T14:03:13.575Z,3.00
2023-04-05T14:08:15.707Z,3.72
2023-04-05T14:13:18.062Z,3.58
2023-04-05T14:18:20.076Z,3.60
2023-04-05T14:23:22.141Z,3.83
2023-04-05T14:28:24.348Z,2.95
2023-04-05T14:33:29.642Z,2.65
2023-04-05T14:38:31.568Z,2.95
2023-04-05T14:43:33.546Z,2.45
2023-04-05T14:48:35.958Z,2.20
2023-04-05T14:53:38.212Z,3.75
2023-04-05T14:58:40.183Z,2.33
2023-04-05T15:03:42.310Z,1.90
2023-04-05T15:08:44.805Z,1.85
2023-04-05T15:13:47.084Z,2.63
2023-04-05T15:18:51.343Z,1.77
2023-04-05T15:23:53.602Z,1.70
2023-04-05T15:28:56.714Z,1.33
2023-04-05T15:33:59.004Z,1.42
2023-04-05T15:39:01.310Z,2.17
2023-04-05T15:44:04.163Z,2.38
2023-04-05T15:49:06.852Z,1.67
2023-04-05T15:54:09.272Z,1.95
2023-04-05T15:59:11.556Z,1.75
2023-04-05T16:04:13.787Z,1.95
2023-04-05T16:09:15.959Z,1.40
2023-04-05T16:14:18.036Z,1.83
2023-04-05T16:19:20.323Z,1.35
2023-04-05T16:24:23.089Z,0.90
2023-04-05T16:29:25.309Z,1.33
2023-04-05T16:34:27.399Z,1.20
2023-04-05T16:39:29.339Z,1.05
2023-04-05T16:44:32.366Z,1.10
2023-04-05T16:49:35.118Z,0.98
2023-04-05T16:54:37.302Z,0.70
2023-04-05T16:59:39.834Z,0.80
2023-04-05T17:04:42.364Z,1.10
2023-04-05T17:09:44.582Z,0.85
2023-04-05T17:14:46.971Z,0.70
2023-04-05T17:19:49.499Z,0.80
2023-04-05T17:24:51.612Z,0.70
2023-04-05T17:29:53.637Z,0.70
2023-04-05T17:34:55.878Z,0.73
2023-04-05T17:39:57.912Z,0.60
2023-04-05T17:45:00.155Z,0.70
2023-04-05T17:50:02.387Z,0.52
2023-04-05T17:55:05.453Z,0.47
2023-04-05T18:00:07.919Z,0.60
2023-04-05T18:05:10.723Z,0.50
2023-04-05T18:10:12.932Z,0.50
2023-04-05T18:15:15.062Z,0.45
2023-04-05T18:20:19.123Z,0.50
2023-04-05T18:25:21.700Z,0.63
2023-04-05T18:30:24.011Z,0.57
2023-04-05T18:35:26.599Z,0.73
2023-04-05T18:40:28.622Z,0.40
2023-04-05T18:45:32.217Z,0.50
2023-04-05T18:50:35.332Z,0.40
2023-04-05T18:55:37.864Z,0.50
2023-04-05T19:00:39.877Z,0.40
2023-04-05T19:05:41.862Z,0.50
2023-04-05T19:10:44.156Z,0.50
2023-04-05T19:15:46.752Z,0.47
2023-04-05T19:20:49.105Z,0.45
2023-04-05T19:25:51.272Z,0.30
2023-04-05T19:30:54.103Z,0.52
2023-04-05T19:35:57.983Z,0.40
2023-04-05T19:41:00.359Z,0.40
2023-04-05T19:46:02.582Z,0.50
2023-04-05T19:51:07.554Z,0.50
2023-04-05T19:56:19.860Z,0.43
2023-04-05T20:01:29.817Z,0.57
2023-04-05T20:06:33.353Z,0.30
2023-04-05T20:11:35.501Z,0.50
2023-04-05T20:16:38.240Z,0.40
2023-04-05T20:21:40.843Z,0.47
2023-04-05T20:26:43.621Z,0.30
2023-04-05T20:31:46.589Z,0.40
2023-04-05T20:36:50.993Z,0.30
2023-04-05T20:41:53.702Z,0.50
2023-04-05T20:46:57.644Z,0.50
2023-04-05T20:52:00.059Z,0.60
2023-04-05T20:57:02.678Z,0.57
2023-04-05T21:02:05.472Z,0.45
2023-04-05T21:07:07.550Z,0.50
2023-04-05T21:12:09.495Z,0.77
2023-04-05T21:17:11.507Z,0.60
2023-04-05T21:22:13.428Z,0.80
2023-04-05T21:27:15.432Z,0.60
2023-04-05T21:32:17.574Z,0.77
2023-04-05T21:37:19.714Z,0.90
2023-04-05T21:42:22.177Z,0.80
2023-04-05T21:47:24.561Z,0.75
2023-04-05T21:52:27.261Z,0.80
2023-04-05T21:57:29.234Z,0.95
2023-04-05T22:02:31.674Z,1.33
2023-04-05T22:07:33.819Z,0.75
2023-04-05T22:12:35.957Z,0.75
2023-04-05T22:17:37.994Z,0.88
2023-04-05T22:22:40.288Z,0.65
2023-04-05T22:27:42.225Z,0.73
2023-04-05T22:32:44.674Z,1.30
2023-04-05T22:37:46.752Z,0.95
2023-04-05T22:42:48.716Z,0.80
2023-04-05T22:47:51.674Z,0.88
2023-04-05T22:52:53.692Z,0.85
2023-04-05T22:57:55.764Z,1.00
2023-04-05T23:02:57.809Z,0.70
2023-04-05T23:07:59.735Z,1.00
2023-04-05T23:13:02.017Z,0.70
2023-04-05T23:18:04.342Z,0.80
2023-04-05T23:23:06.711Z,0.77
2023-04-05T23:28:08.873Z,0.90
2023-04-05T23:33:13.109Z,0.90
2023-04-05T23:38:15.620Z,1.00
2023-04-05T23:43:17.577Z,0.95
2023-04-05T23:48:20.070Z,0.90
2023-04-05T23:53:22.226Z,0.68
2023-04-05T23:58:24.307Z,1.30
